sensor_id;sensor_type;location;lat;lon;timestamp;pressure;altitude;pressure_sealevel;temperature;humidity
28797;BME280;24974;54.444;18.560;2022-08-21T04:23:43;100901.50;;;21.01;87.42
28797;BME280;24974;54.444;18.560;2022-08-21T04:26:13;100907.00;;;21.20;85.94
28797;BME280;24974;54.444;18.560;2022-08-21T04:28:44;100902.59;;;21.46;85.13
28797;BME280;24974;54.444;18.560;2022-08-21T04:31:15;100897.72;;;21.39;85.30
28797;BME280;24974;54.444;18.560;2022-08-21T04:33:46;100905.13;;;21.55;84.09
28797;BME280;24974;54.444;18.560;2022-08-21T04:36:17;100899.22;;;21.60;83.69
28797;BME280;24974;54.444;18.560;2022-08-21T04:38:48;100902.75;;;21.57;83.66
28797;BME280;24974;54.444;18.560;2022-08-21T04:41:18;100900.69;;;21.50;83.67
28797;BME280;24974;54.444;18.560;2022-08-21T04:43:49;100904.47;;;21.35;84.28
28797;BME280;24974;54.444;18.560;2022-08-21T04:46:20;100899.81;;;21.46;83.81
28797;BME280;24974;54.444;18.560;2022-08-21T04:48:52;100893.84;;;21.47;83.78
28797;BME280;24974;54.444;18.560;2022-08-21T04:51:24;100893.72;;;21.67;83.00
28797;BME280;24974;54.444;18.560;2022-08-21T04:56:28;100899.94;;;21.87;82.36
28797;BME280;24974;54.444;18.560;2022-08-21T04:59:02;100905.84;;;21.78;82.07
28797;BME280;24974;54.444;18.560;2022-08-21T05:01:35;100901.53;;;21.84;82.34
28797;BME280;24974;54.444;18.560;2022-08-21T05:04:08;100909.72;;;22.03;81.28
28797;BME280;24974;54.444;18.560;2022-08-21T05:06:41;100907.09;;;22.14;80.87
28797;BME280;24974;54.444;18.560;2022-08-21T05:09:14;100908.66;;;22.12;81.22
28797;BME280;24974;54.444;18.560;2022-08-21T05:11:47;100914.25;;;22.12;80.39
28797;BME280;24974;54.444;18.560;2022-08-21T05:14:19;100917.06;;;22.12;80.87
28797;BME280;24974;54.444;18.560;2022-08-21T05:16:49;100919.66;;;21.97;81.26
28797;BME280;24974;54.444;18.560;2022-08-21T05:19:20;100917.03;;;22.08;81.07
28797;BME280;24974;54.444;18.560;2022-08-21T05:22:22;100912.09;;;21.98;81.59
28797;BME280;24974;54.444;18.560;2022-08-21T05:24:56;100912.66;;;21.81;81.72
28797;BME280;24974;54.444;18.560;2022-08-21T05:34:41;100927.88;;;21.83;82.82
28797;BME280;24974;54.444;18.560;2022-08-21T05:37:12;100931.31;;;22.03;81.51
28797;BME280;24974;54.444;18.560;2022-08-21T05:39:43;100935.03;;;22.11;80.43
28797;BME280;24974;54.444;18.560;2022-08-21T05:42:14;100931.63;;;22.28;79.99
28797;BME280;24974;54.444;18.560;2022-08-21T05:44:44;100932.25;;;22.11;80.46
28797;BME280;24974;54.444;18.560;2022-08-21T05:47:15;100937.91;;;22.14;80.57
28797;BME280;24974;54.444;18.560;2022-08-21T05:49:45;100940.63;;;22.11;80.40
28797;BME280;24974;54.444;18.560;2022-08-21T05:52:19;100943.72;;;22.05;80.80
28797;BME280;24974;54.444;18.560;2022-08-21T05:54:50;100948.72;;;22.16;80.72
28797;BME280;24974;54.444;18.560;2022-08-21T05:57:24;100948.16;;;22.06;81.48
28797;BME280;24974;54.444;18.560;2022-08-21T05:59:55;100946.41;;;21.95;80.82
28797;BME280;24974;54.444;18.560;2022-08-21T06:02:26;100947.09;;;21.85;81.52
28797;BME280;24974;54.444;18.560;2022-08-21T06:44:22;100934.06;;;20.90;86.37
28797;BME280;24974;54.444;18.560;2022-08-21T06:46:52;100938.72;;;20.82;85.36
28797;BME280;24974;54.444;18.560;2022-08-21T06:49:23;100930.09;;;20.91;85.17
28797;BME280;24974;54.444;18.560;2022-08-21T06:51:54;100932.03;;;20.87;85.26
28797;BME280;24974;54.444;18.560;2022-08-21T06:54:24;100939.72;;;20.93;83.79
28797;BME280;24974;54.444;18.560;2022-08-21T06:56:55;100938.28;;;21.03;83.86
28797;BME280;24974;54.444;18.560;2022-08-21T06:59:26;100938.97;;;21.23;83.10
28797;BME280;24974;54.444;18.560;2022-08-21T07:01:57;100943.91;;;21.07;83.36
28797;BME280;24974;54.444;18.560;2022-08-21T07:04:28;100939.06;;;21.27;82.66
28797;BME280;24974;54.444;18.560;2022-08-21T07:06:59;100945.84;;;21.26;82.74
28797;BME280;24974;54.444;18.560;2022-08-21T07:09:30;100942.53;;;21.20;82.62
28797;BME280;24974;54.444;18.560;2022-08-21T07:12:01;100946.75;;;21.33;82.17
28797;BME280;24974;54.444;18.560;2022-08-21T07:14:32;100943.53;;;21.08;82.50
28797;BME280;24974;54.444;18.560;2022-08-21T07:17:03;100951.50;;;21.06;82.55
28797;BME280;24974;54.444;18.560;2022-08-21T07:19:34;100955.47;;;21.05;81.73
28797;BME280;24974;54.444;18.560;2022-08-21T07:22:04;100956.44;;;21.16;82.18
28797;BME280;24974;54.444;18.560;2022-08-21T07:24:35;100956.66;;;21.04;81.61
28797;BME280;24974;54.444;18.560;2022-08-21T07:27:06;100952.88;;;20.93;81.86
28797;BME280;24974;54.444;18.560;2022-08-21T07:29:36;100957.28;;;20.94;82.21
28797;BME280;24974;54.444;18.560;2022-08-21T08:11:54;100958.72;;;20.61;85.59
28797;BME280;24974;54.444;18.560;2022-08-21T08:14:25;100962.06;;;20.71;85.33
28797;BME280;24974;54.444;18.560;2022-08-21T08:16:55;100953.44;;;20.79;84.60
28797;BME280;24974;54.444;18.560;2022-08-21T08:19:26;100958.34;;;20.86;84.28
28797;BME280;24974;54.444;18.560;2022-08-21T08:21:57;100954.25;;;21.03;83.56
28797;BME280;24974;54.444;18.560;2022-08-21T08:24:28;100959.69;;;21.18;83.23
28797;BME280;24974;54.444;18.560;2022-08-21T08:26:59;100966.06;;;21.42;82.71
28797;BME280;24974;54.444;18.560;2022-08-21T08:29:30;100960.25;;;21.54;82.50
28797;BME280;24974;54.444;18.560;2022-08-21T08:32:01;100971.56;;;21.65;81.72
28797;BME280;24974;54.444;18.560;2022-08-21T08:34:32;100981.25;;;21.71;80.55
28797;BME280;24974;54.444;18.560;2022-08-21T08:37:03;100968.75;;;21.91;80.64
28797;BME280;24974;54.444;18.560;2022-08-21T08:39:34;100976.59;;;22.09;80.42
28797;BME280;24974;54.444;18.560;2022-08-21T08:42:09;100968.13;;;22.05;80.65
28797;BME280;24974;54.444;18.560;2022-08-21T08:44:43;100973.19;;;22.22;79.66
28797;BME280;24974;54.444;18.560;2022-08-21T08:47:16;100969.19;;;21.93;80.46
28797;BME280;24974;54.444;18.560;2022-08-21T08:52:41;100977.88;;;21.85;81.25
28797;BME280;24974;54.444;18.560;2022-08-21T08:55:21;100977.28;;;21.72;81.45
28797;BME280;24974;54.444;18.560;2022-08-21T08:57:54;100974.72;;;21.60;81.13
28797;BME280;24974;54.444;18.560;2022-08-21T09:00:25;100967.25;;;21.67;80.83
28797;BME280;24974;54.444;18.560;2022-08-21T09:02:56;100968.56;;;21.77;81.05
28797;BME280;24974;54.444;18.560;2022-08-21T09:08:13;100970.97;;;21.78;80.51
28797;BME280;24974;54.444;18.560;2022-08-21T09:11:17;100974.28;;;21.88;80.11
28797;BME280;24974;54.444;18.560;2022-08-21T09:28:21;100977.97;;;21.92;80.10
28797;BME280;24974;54.444;18.560;2022-08-21T09:30:54;100965.38;;;21.78;79.28
28797;BME280;24974;54.444;18.560;2022-08-21T09:33:26;100962.09;;;21.73;80.49
28797;BME280;24974;54.444;18.560;2022-08-21T09:35:57;100961.22;;;21.95;80.06
28797;BME280;24974;54.444;18.560;2022-08-21T09:38:32;100964.06;;;21.99;80.24
28797;BME280;24974;54.444;18.560;2022-08-21T09:41:06;100960.47;;;21.98;80.17
28797;BME280;24974;54.444;18.560;2022-08-21T09:43:38;100972.56;;;22.06;79.07
28797;BME280;24974;54.444;18.560;2022-08-21T09:46:21;100966.09;;;21.72;80.14
28797;BME280;24974;54.444;18.560;2022-08-21T09:48:57;100983.31;;;21.74;80.38
28797;BME280;24974;54.444;18.560;2022-08-21T09:51:34;100982.84;;;21.68;79.96
28797;BME280;24974;54.444;18.560;2022-08-21T09:57:11;100993.16;;;21.64;79.62
28797;BME280;24974;54.444;18.560;2022-08-21T09:59:49;100991.72;;;21.47;81.41
28797;BME280;24974;54.444;18.560;2022-08-21T10:04:56;100976.88;;;21.20;82.83
28797;BME280;24974;54.444;18.560;2022-08-21T10:07:31;100966.88;;;21.19;82.64
28797;BME280;24974;54.444;18.560;2022-08-21T10:25:08;101006.31;;;20.68;82.67
28797;BME280;24974;54.444;18.560;2022-08-21T10:28:05;100988.19;;;20.82;82.16
28797;BME280;24974;54.444;18.560;2022-08-21T10:31:01;100980.41;;;21.17;81.94
28797;BME280;24974;54.444;18.560;2022-08-21T10:47:41;101006.97;;;21.04;81.47
28797;BME280;24974;54.444;18.560;2022-08-21T10:56:18;101008.31;;;21.14;80.73
28797;BME280;24974;54.444;18.560;2022-08-21T11:01:54;101018.75;;;20.94;81.32
28797;BME280;24974;54.444;18.560;2022-08-21T11:07:32;101025.03;;;20.68;81.57
28797;BME280;24974;54.444;18.560;2022-08-21T11:10:52;101025.59;;;20.77;80.35
28797;BME280;24974;54.444;18.560;2022-08-21T11:13:43;101015.97;;;20.94;80.42
28797;BME280;24974;54.444;18.560;2022-08-21T11:16:23;101020.53;;;20.83;80.86
28797;BME280;24974;54.444;18.560;2022-08-21T11:19:12;101015.72;;;21.03;79.98
28797;BME280;24974;54.444;18.560;2022-08-21T11:27:36;101023.03;;;21.11;79.84
28797;BME280;24974;54.444;18.560;2022-08-21T11:30:11;101027.09;;;21.36;79.29
28797;BME280;24974;54.444;18.560;2022-08-21T11:35:37;101028.00;;;20.98;79.47
28797;BME280;24974;54.444;18.560;2022-08-21T11:44:13;101047.47;;;20.72;80.07
28797;BME280;24974;54.444;18.560;2022-08-21T11:55:54;101055.75;;;20.68;78.34
28797;BME280;24974;54.444;18.560;2022-08-21T12:01:06;101062.03;;;20.61;79.28
28797;BME280;24974;54.444;18.560;2022-08-21T12:03:50;101066.16;;;20.48;79.47
28797;BME280;24974;54.444;18.560;2022-08-21T12:06:35;101062.25;;;20.53;79.12
28797;BME280;24974;54.444;18.560;2022-08-21T12:09:09;101057.59;;;20.80;78.50
28797;BME280;24974;54.444;18.560;2022-08-21T12:11:49;101052.38;;;21.01;78.33
28797;BME280;24974;54.444;18.560;2022-08-21T12:14:21;101055.66;;;20.84;79.15
28797;BME280;24974;54.444;18.560;2022-08-21T12:16:52;101045.13;;;20.97;79.54
28797;BME280;24974;54.444;18.560;2022-08-21T12:19:34;101045.91;;;20.74;79.80
28797;BME280;24974;54.444;18.560;2022-08-21T12:24:45;101050.66;;;20.93;79.21
28797;BME280;24974;54.444;18.560;2022-08-21T12:27:23;101046.63;;;20.90;78.97
28797;BME280;24974;54.444;18.560;2022-08-21T12:30:00;101052.22;;;21.13;78.92
28797;BME280;24974;54.444;18.560;2022-08-21T12:35:14;101054.56;;;20.88;78.87
28797;BME280;24974;54.444;18.560;2022-08-21T12:37:50;101047.75;;;20.86;78.30
28797;BME280;24974;54.444;18.560;2022-08-21T12:40:24;101046.09;;;20.85;78.89
28797;BME280;24974;54.444;18.560;2022-08-21T12:42:59;101050.25;;;20.72;79.13
28797;BME280;24974;54.444;18.560;2022-08-21T12:45:34;101047.91;;;20.74;79.29
28797;BME280;24974;54.444;18.560;2022-08-21T12:48:18;101053.09;;;20.75;78.70
28797;BME280;24974;54.444;18.560;2022-08-21T12:50:56;101049.72;;;20.85;79.21
28797;BME280;24974;54.444;18.560;2022-08-21T12:56:09;101058.78;;;20.40;79.12
28797;BME280;24974;54.444;18.560;2022-08-21T12:58:46;101074.50;;;20.67;78.72
28797;BME280;24974;54.444;18.560;2022-08-21T13:01:23;101081.09;;;20.40;78.33
28797;BME280;24974;54.444;18.560;2022-08-21T13:03:58;101090.69;;;20.58;77.60
28797;BME280;24974;54.444;18.560;2022-08-21T13:06:37;101095.53;;;20.81;77.32
28797;BME280;24974;54.444;18.560;2022-08-21T13:09:11;101090.66;;;20.39;78.40
28797;BME280;24974;54.444;18.560;2022-08-21T13:11:45;101084.53;;;20.33;79.09
28797;BME280;24974;54.444;18.560;2022-08-21T13:14:39;101096.47;;;20.30;79.06
28797;BME280;24974;54.444;18.560;2022-08-21T13:17:12;101097.31;;;20.15;79.32
28797;BME280;24974;54.444;18.560;2022-08-21T13:20:06;101105.09;;;20.25;79.50
28797;BME280;24974;54.444;18.560;2022-08-21T13:22:43;101111.06;;;20.43;78.89
28797;BME280;24974;54.444;18.560;2022-08-21T13:25:16;101105.06;;;20.41;79.50
28797;BME280;24974;54.444;18.560;2022-08-21T13:28:07;101109.06;;;20.24;78.69
28797;BME280;24974;54.444;18.560;2022-08-21T13:30:43;101102.34;;;20.09;78.78
28797;BME280;24974;54.444;18.560;2022-08-21T13:33:16;101106.81;;;20.30;78.75
28797;BME280;24974;54.444;18.560;2022-08-21T13:38:30;101107.97;;;20.29;77.72
28797;BME280;24974;54.444;18.560;2022-08-21T13:41:11;101113.84;;;20.43;77.77
28797;BME280;24974;54.444;18.560;2022-08-21T13:43:50;101113.59;;;20.13;79.53
28797;BME280;24974;54.444;18.560;2022-08-21T13:46:22;101112.31;;;19.91;79.61
28797;BME280;24974;54.444;18.560;2022-08-21T13:48:54;101119.84;;;20.06;79.65
28797;BME280;24974;54.444;18.560;2022-08-21T13:51:26;101121.44;;;20.07;78.79
28797;BME280;24974;54.444;18.560;2022-08-21T13:53:58;101123.34;;;20.03;79.99
28797;BME280;24974;54.444;18.560;2022-08-21T13:56:33;101127.84;;;20.08;79.91
28797;BME280;24974;54.444;18.560;2022-08-21T13:59:11;101120.75;;;19.79;77.66
28797;BME280;24974;54.444;18.560;2022-08-21T14:01:52;101122.38;;;19.80;77.29
28797;BME280;24974;54.444;18.560;2022-08-21T14:04:37;101123.84;;;19.90;77.28
28797;BME280;24974;54.444;18.560;2022-08-21T14:07:24;101127.91;;;19.61;78.68
28797;BME280;24974;54.444;18.560;2022-08-21T14:10:01;101125.66;;;19.66;79.13
28797;BME280;24974;54.444;18.560;2022-08-21T14:12:42;101131.03;;;19.59;79.20
28797;BME280;24974;54.444;18.560;2022-08-21T14:15:17;101134.44;;;19.52;79.60
28797;BME280;24974;54.444;18.560;2022-08-21T14:17:48;101125.72;;;19.70;79.01
28797;BME280;24974;54.444;18.560;2022-08-21T14:20:32;101136.00;;;19.66;79.63
28797;BME280;24974;54.444;18.560;2022-08-21T14:23:03;101139.09;;;19.48;78.38
28797;BME280;24974;54.444;18.560;2022-08-21T14:25:41;101144.81;;;19.68;78.58
28797;BME280;24974;54.444;18.560;2022-08-21T14:28:32;101148.41;;;19.84;77.49
28797;BME280;24974;54.444;18.560;2022-08-21T14:31:30;101154.53;;;19.58;77.95
28797;BME280;24974;54.444;18.560;2022-08-21T14:34:03;101153.44;;;19.63;78.86
28797;BME280;24974;54.444;18.560;2022-08-21T14:36:34;101157.81;;;19.79;78.44
28797;BME280;24974;54.444;18.560;2022-08-21T14:39:05;101153.72;;;19.58;78.08
28797;BME280;24974;54.444;18.560;2022-08-21T14:41:36;101147.28;;;19.41;78.24
28797;BME280;24974;54.444;18.560;2022-08-21T14:44:07;101150.53;;;19.43;78.18
28797;BME280;24974;54.444;18.560;2022-08-21T14:46:39;101140.06;;;19.40;76.73
28797;BME280;24974;54.444;18.560;2022-08-21T14:49:09;101143.22;;;19.39;75.60
28797;BME280;24974;54.444;18.560;2022-08-21T14:51:40;101139.06;;;19.33;76.63
28797;BME280;24974;54.444;18.560;2022-08-21T14:54:11;101127.47;;;19.15;75.12
28797;BME280;24974;54.444;18.560;2022-08-21T14:56:42;101135.47;;;19.32;74.21
28797;BME280;24974;54.444;18.560;2022-08-21T14:59:13;101123.53;;;19.32;74.34
28797;BME280;24974;54.444;18.560;2022-08-21T15:01:44;101124.19;;;18.97;75.49
28797;BME280;24974;54.444;18.560;2022-08-21T15:04:15;101125.06;;;19.45;75.25
28797;BME280;24974;54.444;18.560;2022-08-21T15:06:46;101124.06;;;19.37;75.87
28797;BME280;24974;54.444;18.560;2022-08-21T15:09:17;101124.63;;;19.27;76.38
28797;BME280;24974;54.444;18.560;2022-08-21T15:11:48;101120.72;;;19.32;77.27
28797;BME280;24974;54.444;18.560;2022-08-21T15:14:22;101134.88;;;19.54;77.66
28797;BME280;24974;54.444;18.560;2022-08-21T15:16:57;101130.56;;;19.41;78.26
28797;BME280;24974;54.444;18.560;2022-08-21T15:19:28;101125.88;;;19.45;78.17
28797;BME280;24974;54.444;18.560;2022-08-21T15:22:00;101126.66;;;19.30;79.19
28797;BME280;24974;54.444;18.560;2022-08-21T15:24:31;101124.31;;;19.16;80.01
28797;BME280;24974;54.444;18.560;2022-08-21T15:27:03;101125.41;;;19.27;79.63
28797;BME280;24974;54.444;18.560;2022-08-21T15:29:34;101131.00;;;19.27;79.81
28797;BME280;24974;54.444;18.560;2022-08-21T15:32:25;101132.19;;;19.42;79.02
28797;BME280;24974;54.444;18.560;2022-08-21T15:34:58;101129.66;;;19.37;79.36
28797;BME280;24974;54.444;18.560;2022-08-21T15:37:29;101138.91;;;19.25;79.74
28797;BME280;24974;54.444;18.560;2022-08-21T15:40:00;101144.91;;;19.12;79.95
28797;BME280;24974;54.444;18.560;2022-08-21T15:42:31;101144.72;;;19.20;79.54
28797;BME280;24974;54.444;18.560;2022-08-21T15:45:03;101150.41;;;19.40;79.25
28797;BME280;24974;54.444;18.560;2022-08-21T15:47:36;101164.88;;;19.29;80.02
28797;BME280;24974;54.444;18.560;2022-08-21T15:50:08;101161.34;;;19.17;80.25
28797;BME280;24974;54.444;18.560;2022-08-21T15:52:39;101161.53;;;19.24;79.86
28797;BME280;24974;54.444;18.560;2022-08-21T15:55:13;101156.94;;;19.16;80.31
28797;BME280;24974;54.444;18.560;2022-08-21T15:57:46;101157.91;;;19.08;80.25
28797;BME280;24974;54.444;18.560;2022-08-21T16:00:22;101144.25;;;19.03;79.62
28797;BME280;24974;54.444;18.560;2022-08-21T16:02:55;101135.97;;;19.06;79.48
28797;BME280;24974;54.444;18.560;2022-08-21T16:05:27;101134.81;;;19.07;79.67
28797;BME280;24974;54.444;18.560;2022-08-21T16:07:59;101149.09;;;19.06;79.69
28797;BME280;24974;54.444;18.560;2022-08-21T16:10:30;101163.03;;;19.06;80.35
28797;BME280;24974;54.444;18.560;2022-08-21T16:13:04;101165.56;;;19.11;80.25
28797;BME280;24974;54.444;18.560;2022-08-21T16:15:35;101163.38;;;19.04;80.78
28797;BME280;24974;54.444;18.560;2022-08-21T16:18:06;101162.41;;;18.84;81.02
28797;BME280;24974;54.444;18.560;2022-08-21T16:20:37;101158.19;;;19.03;81.40
28797;BME280;24974;54.444;18.560;2022-08-21T16:23:08;101162.78;;;19.11;80.71
28797;BME280;24974;54.444;18.560;2022-08-21T16:25:40;101169.88;;;18.80;81.78
28797;BME280;24974;54.444;18.560;2022-08-21T16:28:13;101167.44;;;18.79;82.17
28797;BME280;24974;54.444;18.560;2022-08-21T16:30:48;101164.56;;;19.03;81.09
28797;BME280;24974;54.444;18.560;2022-08-21T16:33:22;101157.53;;;18.93;81.47
28797;BME280;24974;54.444;18.560;2022-08-21T16:35:55;101170.09;;;18.75;81.52
28797;BME280;24974;54.444;18.560;2022-08-21T16:38:26;101165.13;;;18.68;81.58
28797;BME280;24974;54.444;18.560;2022-08-21T16:40:59;101165.00;;;18.65;80.90
28797;BME280;24974;54.444;18.560;2022-08-21T16:43:30;101161.31;;;18.73;81.37
28797;BME280;24974;54.444;18.560;2022-08-21T16:46:02;101165.03;;;18.77;80.84
28797;BME280;24974;54.444;18.560;2022-08-21T16:48:33;101153.44;;;18.63;81.53
28797;BME280;24974;54.444;18.560;2022-08-21T16:51:04;101150.88;;;18.58;81.31
28797;BME280;24974;54.444;18.560;2022-08-21T16:53:36;101153.16;;;18.80;80.32
28797;BME280;24974;54.444;18.560;2022-08-21T16:56:09;101151.63;;;18.83;80.73
28797;BME280;24974;54.444;18.560;2022-08-21T16:58:42;101162.81;;;18.58;80.71
28797;BME280;24974;54.444;18.560;2022-08-21T17:01:16;101166.66;;;18.66;79.90
28797;BME280;24974;54.444;18.560;2022-08-21T17:03:48;101167.03;;;18.40;80.51
28797;BME280;24974;54.444;18.560;2022-08-21T17:06:21;101164.44;;;18.71;80.11
28797;BME280;24974;54.444;18.560;2022-08-21T17:08:52;101171.53;;;18.44;81.41
28797;BME280;24974;54.444;18.560;2022-08-21T17:11:42;101174.44;;;18.48;80.50
28797;BME280;24974;54.444;18.560;2022-08-21T17:14:18;101180.63;;;18.29;80.30
28797;BME280;24974;54.444;18.560;2022-08-21T17:16:51;101185.16;;;18.22;80.38
28797;BME280;24974;54.444;18.560;2022-08-21T17:19:24;101180.97;;;18.40;79.91
28797;BME280;24974;54.444;18.560;2022-08-21T17:21:54;101183.06;;;18.18;80.26
28797;BME280;24974;54.444;18.560;2022-08-21T17:24:25;101192.84;;;18.65;79.25
28797;BME280;24974;54.444;18.560;2022-08-21T17:26:56;101187.25;;;18.25;79.58
28797;BME280;24974;54.444;18.560;2022-08-21T17:29:37;101185.38;;;18.41;79.47
28797;BME280;24974;54.444;18.560;2022-08-21T17:32:10;101186.56;;;18.15;81.11
28797;BME280;24974;54.444;18.560;2022-08-21T17:34:42;101186.09;;;18.13;80.30
28797;BME280;24974;54.444;18.560;2022-08-21T17:37:13;101179.13;;;18.32;77.90
28797;BME280;24974;54.444;18.560;2022-08-21T17:39:45;101180.19;;;18.15;77.81
28797;BME280;24974;54.444;18.560;2022-08-21T17:42:15;101184.81;;;18.11;78.23
28797;BME280;24974;54.444;18.560;2022-08-21T17:44:46;101193.84;;;18.08;78.01
28797;BME280;24974;54.444;18.560;2022-08-21T17:47:18;101202.06;;;18.04;77.84
28797;BME280;24974;54.444;18.560;2022-08-21T17:49:49;101210.28;;;17.88;78.79
28797;BME280;24974;54.444;18.560;2022-08-21T17:52:20;101214.38;;;18.15;78.04
28797;BME280;24974;54.444;18.560;2022-08-21T17:54:51;101213.28;;;18.44;77.97
28797;BME280;24974;54.444;18.560;2022-08-21T17:57:22;101225.97;;;18.30;78.44
28797;BME280;24974;54.444;18.560;2022-08-21T17:59:55;101227.47;;;18.39;77.75
28797;BME280;24974;54.444;18.560;2022-08-21T18:02:26;101225.72;;;18.47;77.75
28797;BME280;24974;54.444;18.560;2022-08-21T18:04:58;101229.06;;;18.28;77.98
28797;BME280;24974;54.444;18.560;2022-08-21T18:07:28;101226.06;;;18.33;78.60
28797;BME280;24974;54.444;18.560;2022-08-21T18:10:02;101229.78;;;18.13;78.79
28797;BME280;24974;54.444;18.560;2022-08-21T18:12:34;101237.19;;;18.33;79.03
28797;BME280;24974;54.444;18.560;2022-08-21T18:15:05;101230.34;;;18.43;79.29
28797;BME280;24974;54.444;18.560;2022-08-21T18:17:39;101245.19;;;18.47;78.69
28797;BME280;24974;54.444;18.560;2022-08-21T18:20:11;101240.69;;;18.30;77.93
28797;BME280;24974;54.444;18.560;2022-08-21T18:22:43;101237.53;;;18.20;78.84
28797;BME280;24974;54.444;18.560;2022-08-21T18:25:15;101240.09;;;18.00;79.56
28797;BME280;24974;54.444;18.560;2022-08-21T18:27:47;101237.75;;;17.78;80.60
28797;BME280;24974;54.444;18.560;2022-08-21T18:30:20;101232.22;;;18.02;79.31
28797;BME280;24974;54.444;18.560;2022-08-21T18:32:53;101233.44;;;17.80;80.00
28797;BME280;24974;54.444;18.560;2022-08-21T18:35:25;101241.94;;;18.08;78.35
28797;BME280;24974;54.444;18.560;2022-08-21T18:37:55;101238.59;;;17.91;78.82
28797;BME280;24974;54.444;18.560;2022-08-21T18:40:26;101239.06;;;18.17;77.46
28797;BME280;24974;54.444;18.560;2022-08-21T18:42:58;101242.88;;;18.12;77.95
28797;BME280;24974;54.444;18.560;2022-08-21T18:45:30;101233.03;;;18.15;77.15
28797;BME280;24974;54.444;18.560;2022-08-21T18:48:05;101239.75;;;18.26;77.90
28797;BME280;24974;54.444;18.560;2022-08-21T18:50:39;101226.75;;;18.18;77.03
28797;BME280;24974;54.444;18.560;2022-08-21T18:53:12;101238.69;;;17.94;79.11
28797;BME280;24974;54.444;18.560;2022-08-21T18:55:44;101244.16;;;17.91;79.06
28797;BME280;24974;54.444;18.560;2022-08-21T18:58:15;101241.72;;;18.01;78.20
28797;BME280;24974;54.444;18.560;2022-08-21T19:00:48;101241.94;;;17.96;79.18
28797;BME280;24974;54.444;18.560;2022-08-21T19:03:21;101249.47;;;17.96;78.41
28797;BME280;24974;54.444;18.560;2022-08-21T19:05:53;101251.91;;;18.09;78.39
28797;BME280;24974;54.444;18.560;2022-08-21T19:08:24;101254.47;;;18.02;77.23
28797;BME280;24974;54.444;18.560;2022-08-21T19:10:58;101259.78;;;17.95;78.07
28797;BME280;24974;54.444;18.560;2022-08-21T19:13:32;101250.75;;;17.98;77.49
28797;BME280;24974;54.444;18.560;2022-08-21T19:16:03;101257.34;;;17.81;77.98
